• Join FlightAware (Why Join?)
  • Login
  • US Flag 
04:15PM EDT


 

Airport Tracker/Info


-or-


 

Live Flight TrackerFlight Track Log ✈ N311JE ✈ 26-Jun-2013 ✈ KRFD - KDPA

Flight Track Log - Related Links

Times and Time Zones

All times are in EDT time to prevent confusion due to time zone crossing. See the N311JE flight status page for this flight to view local times or setup timezone preferences in your user account.

Time Position Orientation Groundspeed Altitude Reporting Facility
EDT Latitude Longitude Course Direction KTS MPH feet Rate Location/Type
09:00PM 42.1328 -88.9881 115° Southeast 122 140 3,300  Level Chicago Center
09:01PM 42.1197 -88.9458 113° Southeast 122 140 3,900 300 Climbing Chicago Center
09:02PM 42.1025 -88.8908 113° Southeast 146 168 4,000  Climbing Chicago Center
09:03PM 42.0932 -89.0248 137° Southeast  Level FlightAware Approximate
09:03PM 42.0831 -88.8261 112° Southeast 172 198 4,000  Level Chicago Center
09:04PM 42.0624 -88.9863 137° Southeast  Level FlightAware Approximate
09:04PM 42.0647 -88.7658 112° Southeast 175 201 4,000  Level Chicago Center
09:05PM 42.0447 -88.7031 113° Southeast 181 208 4,000  Level Chicago Center
09:06PM 42.0272 -88.6417 111° Southeast 179 206 4,000  Level Chicago Center
09:07PM 41.9867 -88.5817 132° Southeast 185 213 4,000  Level Chicago Center
09:08PM 41.9475 -88.5372 140° Southeast 184 212 4,000  Level Chicago Center
09:09PM 41.9097 -88.4928 139° Southeast 183 211 4,000  Level Chicago Center
09:10PM 41.8758 -88.4503 137° Southeast 173 199 4,000 -60 Level Chicago Center
09:11PM 41.8392 -88.4339 162° South 146 168 3,900 -60 Descending Chicago Center
09:12PM 41.7958 -88.4142 161° South 140 161 3,900 -60 Level Chicago Center
09:13PM 41.7583 -88.3969 161° South 142 163 3,800 -420 Descending Chicago Center
09:14PM 41.7450 -88.3397 107° East 156 180 3,100 -600 Descending Chicago Center
09:15PM 41.7700 -88.2986 51° Northeast 150 173 2,600 -420 Descending Chicago Center
09:16PM 41.8047 -88.2761 26° Northeast 141 162 2,300 -480 Descending Chicago Center
09:19PM 41.8656 -88.2642 North 129 148 1,200 -540 Descending Chicago Center